sensor_id;sensor_type;location;lat;lon;timestamp;P1;durP1;ratioP1;P2;durP2;ratioP2
10605;SDS011;5350;42.698;23.148;2023-12-04T00:02:24;6.33;;;4.07;;
10605;SDS011;5350;42.698;23.148;2023-12-04T00:04:51;6.40;;;4.27;;
10605;SDS011;5350;42.698;23.148;2023-12-04T00:07:17;7.60;;;4.47;;
10605;SDS011;5350;42.698;23.148;2023-12-04T00:09:44;6.30;;;4.43;;
10605;SDS011;5350;42.698;23.148;2023-12-04T00:12:11;6.70;;;4.73;;
10605;SDS011;5350;42.698;23.148;2023-12-04T00:14:38;7.37;;;4.93;;
10605;SDS011;5350;42.698;23.148;2023-12-04T00:17:04;5.83;;;3.83;;
10605;SDS011;5350;42.698;23.148;2023-12-04T00:19:32;7.23;;;4.13;;
10605;SDS011;5350;42.698;23.148;2023-12-04T00:21:59;7.77;;;5.30;;
10605;SDS011;5350;42.698;23.148;2023-12-04T00:24:26;8.67;;;4.40;;
10605;SDS011;5350;42.698;23.148;2023-12-04T00:26:52;7.00;;;4.80;;
10605;SDS011;5350;42.698;23.148;2023-12-04T00:29:19;6.80;;;5.00;;
10605;SDS011;5350;42.698;23.148;2023-12-04T00:31:46;5.50;;;4.40;;
10605;SDS011;5350;42.698;23.148;2023-12-04T00:34:12;7.37;;;4.90;;
10605;SDS011;5350;42.698;23.148;2023-12-04T00:36:40;6.20;;;4.17;;
10605;SDS011;5350;42.698;23.148;2023-12-04T00:39:07;4.23;;;2.37;;
10605;SDS011;5350;42.698;23.148;2023-12-04T00:41:34;7.63;;;4.50;;
10605;SDS011;5350;42.698;23.148;2023-12-04T00:44:00;6.07;;;4.60;;
10605;SDS011;5350;42.698;23.148;2023-12-04T00:46:27;5.47;;;3.10;;
10605;SDS011;5350;42.698;23.148;2023-12-04T00:48:54;7.83;;;5.00;;
10605;SDS011;5350;42.698;23.148;2023-12-04T00:51:22;5.13;;;3.33;;
10605;SDS011;5350;42.698;23.148;2023-12-04T00:53:50;7.10;;;4.23;;
10605;SDS011;5350;42.698;23.148;2023-12-04T00:56:16;7.40;;;4.73;;
10605;SDS011;5350;42.698;23.148;2023-12-04T00:58:43;9.87;;;4.80;;
10605;SDS011;5350;42.698;23.148;2023-12-04T01:01:10;7.33;;;5.13;;
10605;SDS011;5350;42.698;23.148;2023-12-04T01:03:37;6.90;;;4.37;;
10605;SDS011;5350;42.698;23.148;2023-12-04T01:06:04;5.47;;;4.33;;
10605;SDS011;5350;42.698;23.148;2023-12-04T01:08:31;7.13;;;4.90;;
10605;SDS011;5350;42.698;23.148;2023-12-04T01:10:59;6.00;;;4.13;;
10605;SDS011;5350;42.698;23.148;2023-12-04T01:13:26;5.67;;;4.30;;
10605;SDS011;5350;42.698;23.148;2023-12-04T01:15:52;5.73;;;4.40;;
10605;SDS011;5350;42.698;23.148;2023-12-04T01:18:19;5.93;;;4.37;;
10605;SDS011;5350;42.698;23.148;2023-12-04T01:20:47;6.57;;;4.00;;
10605;SDS011;5350;42.698;23.148;2023-12-04T01:23:13;5.73;;;3.63;;
10605;SDS011;5350;42.698;23.148;2023-12-04T01:25:40;7.00;;;4.43;;
10605;SDS011;5350;42.698;23.148;2023-12-04T01:28:08;6.07;;;4.20;;
10605;SDS011;5350;42.698;23.148;2023-12-04T01:30:35;6.07;;;4.27;;
10605;SDS011;5350;42.698;23.148;2023-12-04T01:33:01;4.73;;;3.67;;
10605;SDS011;5350;42.698;23.148;2023-12-04T01:35:27;4.50;;;3.23;;
10605;SDS011;5350;42.698;23.148;2023-12-04T01:37:54;3.60;;;2.83;;
10605;SDS011;5350;42.698;23.148;2023-12-04T01:40:21;7.20;;;4.40;;
10605;SDS011;5350;42.698;23.148;2023-12-04T01:42:47;4.90;;;3.07;;
10605;SDS011;5350;42.698;23.148;2023-12-04T01:45:16;5.03;;;3.73;;
10605;SDS011;5350;42.698;23.148;2023-12-04T01:47:43;6.07;;;3.67;;
10605;SDS011;5350;42.698;23.148;2023-12-04T01:50:09;4.10;;;3.03;;
10605;SDS011;5350;42.698;23.148;2023-12-04T01:52:36;5.60;;;3.47;;
10605;SDS011;5350;42.698;23.148;2023-12-04T01:55:04;7.47;;;4.23;;
10605;SDS011;5350;42.698;23.148;2023-12-04T01:57:33;5.43;;;3.67;;
10605;SDS011;5350;42.698;23.148;2023-12-04T02:00:00;6.33;;;4.07;;
10605;SDS011;5350;42.698;23.148;2023-12-04T02:02:28;6.20;;;4.10;;
10605;SDS011;5350;42.698;23.148;2023-12-04T02:04:55;6.23;;;3.97;;
10605;SDS011;5350;42.698;23.148;2023-12-04T02:07:25;5.90;;;4.20;;
10605;SDS011;5350;42.698;23.148;2023-12-04T02:09:52;5.13;;;3.53;;
10605;SDS011;5350;42.698;23.148;2023-12-04T02:12:19;4.13;;;2.70;;
10605;SDS011;5350;42.698;23.148;2023-12-04T02:14:46;6.77;;;4.07;;
10605;SDS011;5350;42.698;23.148;2023-12-04T02:17:13;4.70;;;2.70;;
10605;SDS011;5350;42.698;23.148;2023-12-04T02:19:42;6.73;;;3.67;;
10605;SDS011;5350;42.698;23.148;2023-12-04T02:22:09;4.77;;;3.03;;
10605;SDS011;5350;42.698;23.148;2023-12-04T02:24:37;4.53;;;3.27;;
10605;SDS011;5350;42.698;23.148;2023-12-04T02:27:04;4.20;;;3.23;;
10605;SDS011;5350;42.698;23.148;2023-12-04T02:29:37;5.57;;;3.27;;
10605;SDS011;5350;42.698;23.148;2023-12-04T02:32:08;4.20;;;3.03;;
10605;SDS011;5350;42.698;23.148;2023-12-04T02:34:41;5.37;;;3.17;;
10605;SDS011;5350;42.698;23.148;2023-12-04T02:37:08;4.13;;;2.77;;
10605;SDS011;5350;42.698;23.148;2023-12-04T02:39:38;5.70;;;3.97;;
10605;SDS011;5350;42.698;23.148;2023-12-04T02:42:05;7.17;;;4.73;;
10605;SDS011;5350;42.698;23.148;2023-12-04T02:44:32;2.97;;;2.33;;
10605;SDS011;5350;42.698;23.148;2023-12-04T02:46:59;7.53;;;3.70;;
10605;SDS011;5350;42.698;23.148;2023-12-04T02:49:26;4.13;;;3.20;;
10605;SDS011;5350;42.698;23.148;2023-12-04T02:51:53;7.73;;;3.20;;
10605;SDS011;5350;42.698;23.148;2023-12-04T02:54:19;4.13;;;2.57;;
10605;SDS011;5350;42.698;23.148;2023-12-04T02:56:47;4.77;;;2.80;;
10605;SDS011;5350;42.698;23.148;2023-12-04T02:59:14;6.27;;;3.63;;
10605;SDS011;5350;42.698;23.148;2023-12-04T03:01:41;5.77;;;3.77;;
10605;SDS011;5350;42.698;23.148;2023-12-04T03:04:07;4.43;;;3.30;;
10605;SDS011;5350;42.698;23.148;2023-12-04T03:06:34;4.57;;;2.83;;
10605;SDS011;5350;42.698;23.148;2023-12-04T03:09:02;4.03;;;3.00;;
10605;SDS011;5350;42.698;23.148;2023-12-04T03:11:30;3.87;;;3.13;;
10605;SDS011;5350;42.698;23.148;2023-12-04T03:13:59;4.60;;;3.13;;
10605;SDS011;5350;42.698;23.148;2023-12-04T03:16:26;4.63;;;3.50;;
10605;SDS011;5350;42.698;23.148;2023-12-04T03:18:53;3.90;;;2.43;;
10605;SDS011;5350;42.698;23.148;2023-12-04T03:21:20;5.17;;;3.60;;
10605;SDS011;5350;42.698;23.148;2023-12-04T03:23:46;5.63;;;3.70;;
10605;SDS011;5350;42.698;23.148;2023-12-04T03:26:13;4.57;;;3.47;;
10605;SDS011;5350;42.698;23.148;2023-12-04T03:28:40;5.30;;;4.00;;
10605;SDS011;5350;42.698;23.148;2023-12-04T03:31:08;6.73;;;4.03;;
10605;SDS011;5350;42.698;23.148;2023-12-04T03:33:35;6.17;;;4.07;;
10605;SDS011;5350;42.698;23.148;2023-12-04T03:36:02;6.90;;;4.40;;
10605;SDS011;5350;42.698;23.148;2023-12-04T03:38:29;6.30;;;3.87;;
10605;SDS011;5350;42.698;23.148;2023-12-04T03:40:55;7.00;;;3.93;;
10605;SDS011;5350;42.698;23.148;2023-12-04T03:43:22;4.10;;;2.33;;
10605;SDS011;5350;42.698;23.148;2023-12-04T03:45:49;8.47;;;6.27;;
10605;SDS011;5350;42.698;23.148;2023-12-04T03:48:17;13.63;;;8.13;;
10605;SDS011;5350;42.698;23.148;2023-12-04T03:50:44;6.63;;;4.30;;
10605;SDS011;5350;42.698;23.148;2023-12-04T03:53:10;7.60;;;3.63;;
10605;SDS011;5350;42.698;23.148;2023-12-04T03:55:37;6.33;;;3.87;;
10605;SDS011;5350;42.698;23.148;2023-12-04T03:58:04;6.90;;;3.97;;
10605;SDS011;5350;42.698;23.148;2023-12-04T04:00:30;5.07;;;3.90;;
10605;SDS011;5350;42.698;23.148;2023-12-04T04:02:57;6.53;;;4.23;;
10605;SDS011;5350;42.698;23.148;2023-12-04T04:05:25;5.10;;;3.70;;
10605;SDS011;5350;42.698;23.148;2023-12-04T04:07:52;6.00;;;3.83;;
10605;SDS011;5350;42.698;23.148;2023-12-04T04:10:18;6.20;;;3.93;;
10605;SDS011;5350;42.698;23.148;2023-12-04T04:12:45;8.10;;;4.77;;
10605;SDS011;5350;42.698;23.148;2023-12-04T04:15:12;6.97;;;4.17;;
10605;SDS011;5350;42.698;23.148;2023-12-04T04:17:38;6.83;;;4.27;;
10605;SDS011;5350;42.698;23.148;2023-12-04T04:20:06;6.60;;;4.63;;
10605;SDS011;5350;42.698;23.148;2023-12-04T04:22:35;23.50;;;11.07;;
10605;SDS011;5350;42.698;23.148;2023-12-04T04:25:04;28.33;;;13.80;;
10605;SDS011;5350;42.698;23.148;2023-12-04T04:27:31;14.43;;;7.90;;
10605;SDS011;5350;42.698;23.148;2023-12-04T04:29:58;6.33;;;4.70;;
10605;SDS011;5350;42.698;23.148;2023-12-04T04:32:25;4.20;;;3.33;;
10605;SDS011;5350;42.698;23.148;2023-12-04T04:34:51;7.63;;;4.60;;
10605;SDS011;5350;42.698;23.148;2023-12-04T04:37:18;5.67;;;3.90;;
10605;SDS011;5350;42.698;23.148;2023-12-04T04:39:47;4.33;;;3.33;;
10605;SDS011;5350;42.698;23.148;2023-12-04T04:42:13;3.73;;;2.90;;
10605;SDS011;5350;42.698;23.148;2023-12-04T04:44:40;6.00;;;3.33;;
10605;SDS011;5350;42.698;23.148;2023-12-04T04:47:07;6.33;;;3.80;;
10605;SDS011;5350;42.698;23.148;2023-12-04T04:49:34;4.10;;;2.90;;
10605;SDS011;5350;42.698;23.148;2023-12-04T04:52:01;4.60;;;3.30;;
10605;SDS011;5350;42.698;23.148;2023-12-04T04:54:30;4.50;;;2.80;;
10605;SDS011;5350;42.698;23.148;2023-12-04T04:56:58;4.37;;;3.13;;
10605;SDS011;5350;42.698;23.148;2023-12-04T04:59:25;5.13;;;2.90;;
10605;SDS011;5350;42.698;23.148;2023-12-04T05:01:55;4.63;;;3.57;;
10605;SDS011;5350;42.698;23.148;2023-12-04T05:04:21;4.23;;;2.90;;
10605;SDS011;5350;42.698;23.148;2023-12-04T05:06:48;5.00;;;3.83;;
10605;SDS011;5350;42.698;23.148;2023-12-04T05:09:15;5.00;;;2.80;;
10605;SDS011;5350;42.698;23.148;2023-12-04T05:11:42;4.47;;;3.13;;
10605;SDS011;5350;42.698;23.148;2023-12-04T05:14:10;4.50;;;2.70;;
10605;SDS011;5350;42.698;23.148;2023-12-04T05:16:37;4.20;;;3.03;;
10605;SDS011;5350;42.698;23.148;2023-12-04T05:19:03;4.20;;;2.73;;
10605;SDS011;5350;42.698;23.148;2023-12-04T05:21:31;5.27;;;3.87;;
10605;SDS011;5350;42.698;23.148;2023-12-04T05:23:57;4.77;;;2.90;;
10605;SDS011;5350;42.698;23.148;2023-12-04T05:26:24;3.07;;;2.00;;
10605;SDS011;5350;42.698;23.148;2023-12-04T05:28:51;5.77;;;3.80;;
10605;SDS011;5350;42.698;23.148;2023-12-04T05:31:19;4.17;;;2.67;;
10605;SDS011;5350;42.698;23.148;2023-12-04T05:33:46;3.43;;;2.63;;
10605;SDS011;5350;42.698;23.148;2023-12-04T05:36:12;4.43;;;3.00;;
10605;SDS011;5350;42.698;23.148;2023-12-04T05:38:39;4.50;;;3.20;;
10605;SDS011;5350;42.698;23.148;2023-12-04T05:41:06;4.87;;;3.20;;
10605;SDS011;5350;42.698;23.148;2023-12-04T05:43:33;3.90;;;2.80;;
10605;SDS011;5350;42.698;23.148;2023-12-04T05:45:59;5.43;;;3.17;;
10605;SDS011;5350;42.698;23.148;2023-12-04T05:48:28;5.07;;;3.40;;
10605;SDS011;5350;42.698;23.148;2023-12-04T05:50:55;5.10;;;3.60;;
10605;SDS011;5350;42.698;23.148;2023-12-04T05:53:21;10.07;;;5.87;;
10605;SDS011;5350;42.698;23.148;2023-12-04T05:55:48;9.30;;;5.33;;
10605;SDS011;5350;42.698;23.148;2023-12-04T05:58:15;6.00;;;4.23;;
10605;SDS011;5350;42.698;23.148;2023-12-04T06:00:42;7.33;;;4.70;;
10605;SDS011;5350;42.698;23.148;2023-12-04T06:03:09;6.20;;;4.13;;
10605;SDS011;5350;42.698;23.148;2023-12-04T06:05:37;7.67;;;5.30;;
10605;SDS011;5350;42.698;23.148;2023-12-04T06:08:04;6.33;;;4.10;;
10605;SDS011;5350;42.698;23.148;2023-12-04T06:10:30;5.87;;;4.37;;
10605;SDS011;5350;42.698;23.148;2023-12-04T06:13:00;10.37;;;7.10;;
10605;SDS011;5350;42.698;23.148;2023-12-04T06:15:26;9.40;;;5.10;;
10605;SDS011;5350;42.698;23.148;2023-12-04T06:17:53;6.80;;;4.47;;
10605;SDS011;5350;42.698;23.148;2023-12-04T06:20:20;5.67;;;3.70;;
10605;SDS011;5350;42.698;23.148;2023-12-04T06:22:48;5.37;;;3.47;;
10605;SDS011;5350;42.698;23.148;2023-12-04T06:25:15;5.63;;;3.73;;
10605;SDS011;5350;42.698;23.148;2023-12-04T06:27:43;5.10;;;3.73;;
10605;SDS011;5350;42.698;23.148;2023-12-04T06:30:10;6.23;;;4.13;;
10605;SDS011;5350;42.698;23.148;2023-12-04T06:32:38;5.07;;;3.80;;
10605;SDS011;5350;42.698;23.148;2023-12-04T06:35:05;7.13;;;4.50;;
10605;SDS011;5350;42.698;23.148;2023-12-04T06:37:33;6.30;;;3.90;;
10605;SDS011;5350;42.698;23.148;2023-12-04T06:40:02;5.33;;;4.03;;
10605;SDS011;5350;42.698;23.148;2023-12-04T06:42:31;7.30;;;4.40;;
10605;SDS011;5350;42.698;23.148;2023-12-04T06:44:58;10.10;;;4.17;;
10605;SDS011;5350;42.698;23.148;2023-12-04T06:47:26;6.37;;;3.73;;
10605;SDS011;5350;42.698;23.148;2023-12-04T06:49:55;11.80;;;6.43;;
10605;SDS011;5350;42.698;23.148;2023-12-04T06:52:22;9.43;;;5.43;;
10605;SDS011;5350;42.698;23.148;2023-12-04T06:54:49;9.13;;;5.07;;
10605;SDS011;5350;42.698;23.148;2023-12-04T06:57:17;7.20;;;4.77;;
10605;SDS011;5350;42.698;23.148;2023-12-04T06:59:44;9.43;;;1.80;;
10605;SDS011;5350;42.698;23.148;2023-12-04T07:02:11;5.70;;;3.87;;
10605;SDS011;5350;42.698;23.148;2023-12-04T07:04:37;7.17;;;4.50;;
10605;SDS011;5350;42.698;23.148;2023-12-04T07:07:04;6.03;;;3.87;;
10605;SDS011;5350;42.698;23.148;2023-12-04T07:09:32;10.07;;;5.20;;
10605;SDS011;5350;42.698;23.148;2023-12-04T07:11:59;6.77;;;4.33;;
10605;SDS011;5350;42.698;23.148;2023-12-04T07:14:27;6.73;;;4.20;;
10605;SDS011;5350;42.698;23.148;2023-12-04T07:16:54;5.40;;;4.07;;
10605;SDS011;5350;42.698;23.148;2023-12-04T07:19:20;6.63;;;4.27;;
10605;SDS011;5350;42.698;23.148;2023-12-04T07:21:47;7.20;;;4.37;;
10605;SDS011;5350;42.698;23.148;2023-12-04T07:24:15;6.30;;;4.10;;
10605;SDS011;5350;42.698;23.148;2023-12-04T07:26:41;5.97;;;4.07;;
10605;SDS011;5350;42.698;23.148;2023-12-04T07:29:08;6.67;;;4.60;;
10605;SDS011;5350;42.698;23.148;2023-12-04T07:31:37;5.60;;;4.03;;
10605;SDS011;5350;42.698;23.148;2023-12-04T07:34:03;7.30;;;4.50;;
10605;SDS011;5350;42.698;23.148;2023-12-04T07:36:30;5.83;;;4.10;;
10605;SDS011;5350;42.698;23.148;2023-12-04T07:38:57;10.00;;;6.07;;
10605;SDS011;5350;42.698;23.148;2023-12-04T07:41:24;5.60;;;4.27;;
10605;SDS011;5350;42.698;23.148;2023-12-04T07:43:50;5.50;;;3.70;;
10605;SDS011;5350;42.698;23.148;2023-12-04T07:46:17;7.60;;;4.73;;
10605;SDS011;5350;42.698;23.148;2023-12-04T07:48:45;6.23;;;4.00;;
10605;SDS011;5350;42.698;23.148;2023-12-04T07:51:12;4.67;;;3.57;;
10605;SDS011;5350;42.698;23.148;2023-12-04T07:53:39;5.77;;;3.67;;
10605;SDS011;5350;42.698;23.148;2023-12-04T07:56:06;4.33;;;3.30;;
10605;SDS011;5350;42.698;23.148;2023-12-04T07:58:33;3.83;;;2.37;;
10605;SDS011;5350;42.698;23.148;2023-12-04T08:01:00;4.20;;;2.90;;
10605;SDS011;5350;42.698;23.148;2023-12-04T08:03:27;5.10;;;2.37;;
10605;SDS011;5350;42.698;23.148;2023-12-04T08:05:55;4.93;;;3.47;;
10605;SDS011;5350;42.698;23.148;2023-12-04T08:08:22;4.73;;;3.13;;
10605;SDS011;5350;42.698;23.148;2023-12-04T08:10:48;3.60;;;3.13;;
10605;SDS011;5350;42.698;23.148;2023-12-04T08:13:15;4.30;;;3.43;;
10605;SDS011;5350;42.698;23.148;2023-12-04T08:15:43;3.07;;;2.03;;
10605;SDS011;5350;42.698;23.148;2023-12-04T08:18:10;4.23;;;2.87;;
10605;SDS011;5350;42.698;23.148;2023-12-04T08:20:37;2.77;;;2.20;;
10605;SDS011;5350;42.698;23.148;2023-12-04T08:23:05;3.37;;;2.17;;
10605;SDS011;5350;42.698;23.148;2023-12-04T08:25:32;4.00;;;2.10;;
10605;SDS011;5350;42.698;23.148;2023-12-04T08:27:58;4.00;;;2.90;;
10605;SDS011;5350;42.698;23.148;2023-12-04T08:30:25;3.90;;;2.90;;
10605;SDS011;5350;42.698;23.148;2023-12-04T08:32:53;3.67;;;2.40;;
10605;SDS011;5350;42.698;23.148;2023-12-04T08:35:20;3.27;;;2.53;;
10605;SDS011;5350;42.698;23.148;2023-12-04T08:37:47;3.17;;;2.50;;
10605;SDS011;5350;42.698;23.148;2023-12-04T08:40:23;4.37;;;2.80;;
10605;SDS011;5350;42.698;23.148;2023-12-04T08:42:50;3.37;;;2.47;;
10605;SDS011;5350;42.698;23.148;2023-12-04T08:45:16;3.73;;;2.80;;
10605;SDS011;5350;42.698;23.148;2023-12-04T08:47:44;4.17;;;3.33;;
10605;SDS011;5350;42.698;23.148;2023-12-04T08:50:11;4.80;;;3.27;;
10605;SDS011;5350;42.698;23.148;2023-12-04T08:52:37;3.60;;;2.70;;
10605;SDS011;5350;42.698;23.148;2023-12-04T08:55:06;4.23;;;2.60;;
10605;SDS011;5350;42.698;23.148;2023-12-04T08:57:35;5.37;;;3.03;;
10605;SDS011;5350;42.698;23.148;2023-12-04T09:00:02;4.10;;;2.67;;
10605;SDS011;5350;42.698;23.148;2023-12-04T09:02:29;3.97;;;2.63;;
10605;SDS011;5350;42.698;23.148;2023-12-04T09:04:56;3.77;;;2.93;;
10605;SDS011;5350;42.698;23.148;2023-12-04T09:07:23;5.20;;;2.30;;
10605;SDS011;5350;42.698;23.148;2023-12-04T09:09:50;4.77;;;2.73;;
10605;SDS011;5350;42.698;23.148;2023-12-04T09:12:17;4.17;;;2.47;;
10605;SDS011;5350;42.698;23.148;2023-12-04T09:14:45;3.93;;;2.67;;
10605;SDS011;5350;42.698;23.148;2023-12-04T09:17:12;3.37;;;2.20;;
10605;SDS011;5350;42.698;23.148;2023-12-04T09:19:39;4.37;;;2.57;;
10605;SDS011;5350;42.698;23.148;2023-12-04T09:22:06;2.40;;;2.20;;
10605;SDS011;5350;42.698;23.148;2023-12-04T09:24:33;3.53;;;2.50;;
10605;SDS011;5350;42.698;23.148;2023-12-04T09:27:00;5.33;;;2.87;;
10605;SDS011;5350;42.698;23.148;2023-12-04T09:29:27;3.63;;;2.63;;
10605;SDS011;5350;42.698;23.148;2023-12-04T09:31:55;6.90;;;4.53;;
10605;SDS011;5350;42.698;23.148;2023-12-04T09:34:21;3.50;;;2.87;;
10605;SDS011;5350;42.698;23.148;2023-12-04T09:36:48;2.70;;;2.30;;
10605;SDS011;5350;42.698;23.148;2023-12-04T09:39:15;2.80;;;2.53;;
10605;SDS011;5350;42.698;23.148;2023-12-04T09:41:42;3.77;;;2.80;;
10605;SDS011;5350;42.698;23.148;2023-12-04T09:44:10;3.77;;;2.30;;
10605;SDS011;5350;42.698;23.148;2023-12-04T09:46:37;3.07;;;2.03;;
10605;SDS011;5350;42.698;23.148;2023-12-04T09:49:06;3.20;;;2.57;;
10605;SDS011;5350;42.698;23.148;2023-12-04T09:51:34;3.50;;;2.57;;
10605;SDS011;5350;42.698;23.148;2023-12-04T09:54:02;4.60;;;2.77;;
10605;SDS011;5350;42.698;23.148;2023-12-04T09:56:30;2.77;;;2.30;;
10605;SDS011;5350;42.698;23.148;2023-12-04T09:59:00;2.93;;;2.17;;
10605;SDS011;5350;42.698;23.148;2023-12-04T10:01:27;3.73;;;2.67;;
10605;SDS011;5350;42.698;23.148;2023-12-04T10:03:56;3.00;;;2.50;;
10605;SDS011;5350;42.698;23.148;2023-12-04T10:06:26;3.00;;;2.50;;
10605;SDS011;5350;42.698;23.148;2023-12-04T10:08:54;2.53;;;2.30;;
10605;SDS011;5350;42.698;23.148;2023-12-04T10:11:22;3.10;;;2.30;;
10605;SDS011;5350;42.698;23.148;2023-12-04T10:13:49;2.93;;;2.20;;
10605;SDS011;5350;42.698;23.148;2023-12-04T10:16:30;2.70;;;2.23;;
10605;SDS011;5350;42.698;23.148;2023-12-04T10:18:59;3.00;;;2.40;;
10605;SDS011;5350;42.698;23.148;2023-12-04T10:21:42;2.87;;;2.40;;
10605;SDS011;5350;42.698;23.148;2023-12-04T10:24:09;3.63;;;2.60;;
10605;SDS011;5350;42.698;23.148;2023-12-04T10:26:35;3.37;;;2.40;;
10605;SDS011;5350;42.698;23.148;2023-12-04T10:29:03;3.83;;;2.43;;
10605;SDS011;5350;42.698;23.148;2023-12-04T10:31:34;4.00;;;2.90;;
10605;SDS011;5350;42.698;23.148;2023-12-04T10:34:01;2.87;;;2.40;;
10605;SDS011;5350;42.698;23.148;2023-12-04T10:36:30;3.90;;;2.20;;
10605;SDS011;5350;42.698;23.148;2023-12-04T10:38:59;3.70;;;2.30;;
10605;SDS011;5350;42.698;23.148;2023-12-04T10:41:26;3.10;;;2.50;;
10605;SDS011;5350;42.698;23.148;2023-12-04T10:43:53;3.73;;;2.50;;
10605;SDS011;5350;42.698;23.148;2023-12-04T10:46:22;2.50;;;2.10;;
10605;SDS011;5350;42.698;23.148;2023-12-04T10:48:50;3.93;;;2.20;;
10605;SDS011;5350;42.698;23.148;2023-12-04T10:51:17;2.57;;;2.10;;
10605;SDS011;5350;42.698;23.148;2023-12-04T10:53:47;3.60;;;2.23;;
10605;SDS011;5350;42.698;23.148;2023-12-04T10:56:18;2.73;;;2.30;;
10605;SDS011;5350;42.698;23.148;2023-12-04T10:58:46;2.77;;;2.37;;
10605;SDS011;5350;42.698;23.148;2023-12-04T11:01:17;2.43;;;2.10;;
10605;SDS011;5350;42.698;23.148;2023-12-04T11:03:47;2.03;;;1.63;;
10605;SDS011;5350;42.698;23.148;2023-12-04T11:06:17;2.23;;;2.03;;
10605;SDS011;5350;42.698;23.148;2023-12-04T11:08:47;2.20;;;2.00;;
10605;SDS011;5350;42.698;23.148;2023-12-04T11:11:19;3.80;;;2.17;;
10605;SDS011;5350;42.698;23.148;2023-12-04T11:13:52;3.00;;;1.93;;
10605;SDS011;5350;42.698;23.148;2023-12-04T11:16:25;2.40;;;2.20;;
10605;SDS011;5350;42.698;23.148;2023-12-04T11:18:59;2.70;;;2.00;;
10605;SDS011;5350;42.698;23.148;2023-12-04T11:21:30;2.43;;;1.90;;
10605;SDS011;5350;42.698;23.148;2023-12-04T11:23:58;3.10;;;2.13;;
10605;SDS011;5350;42.698;23.148;2023-12-04T11:26:27;2.17;;;1.93;;
10605;SDS011;5350;42.698;23.148;2023-12-04T11:28:54;2.50;;;1.97;;
10605;SDS011;5350;42.698;23.148;2023-12-04T11:31:22;2.53;;;2.33;;
10605;SDS011;5350;42.698;23.148;2023-12-04T11:33:50;3.17;;;1.90;;
10605;SDS011;5350;42.698;23.148;2023-12-04T11:36:17;3.13;;;2.37;;
10605;SDS011;5350;42.698;23.148;2023-12-04T11:38:44;2.77;;;2.43;;
10605;SDS011;5350;42.698;23.148;2023-12-04T11:41:15;3.47;;;2.07;;
10605;SDS011;5350;42.698;23.148;2023-12-04T11:43:45;7.20;;;2.20;;
10605;SDS011;5350;42.698;23.148;2023-12-04T11:46:12;2.37;;;1.90;;
10605;SDS011;5350;42.698;23.148;2023-12-04T11:48:39;2.57;;;2.30;;
10605;SDS011;5350;42.698;23.148;2023-12-04T11:51:06;2.93;;;2.30;;
10605;SDS011;5350;42.698;23.148;2023-12-04T11:53:37;2.77;;;2.50;;
10605;SDS011;5350;42.698;23.148;2023-12-04T11:56:08;4.20;;;2.50;;
10605;SDS011;5350;42.698;23.148;2023-12-04T11:58:41;3.30;;;2.10;;
10605;SDS011;5350;42.698;23.148;2023-12-04T12:01:10;2.30;;;2.10;;
10605;SDS011;5350;42.698;23.148;2023-12-04T12:03:36;2.33;;;2.17;;
10605;SDS011;5350;42.698;23.148;2023-12-04T12:06:05;3.67;;;2.60;;
10605;SDS011;5350;42.698;23.148;2023-12-04T12:08:32;3.83;;;3.03;;
10605;SDS011;5350;42.698;23.148;2023-12-04T12:10:59;3.97;;;2.67;;
10605;SDS011;5350;42.698;23.148;2023-12-04T12:13:25;2.80;;;2.47;;
10605;SDS011;5350;42.698;23.148;2023-12-04T12:15:53;3.13;;;2.60;;
10605;SDS011;5350;42.698;23.148;2023-12-04T12:18:21;3.10;;;2.80;;
10605;SDS011;5350;42.698;23.148;2023-12-04T12:20:49;2.70;;;2.50;;
10605;SDS011;5350;42.698;23.148;2023-12-04T12:23:16;2.70;;;2.40;;
10605;SDS011;5350;42.698;23.148;2023-12-04T12:25:43;2.53;;;2.20;;
10605;SDS011;5350;42.698;23.148;2023-12-04T12:28:10;3.40;;;2.30;;
10605;SDS011;5350;42.698;23.148;2023-12-04T12:30:36;3.17;;;2.60;;
10605;SDS011;5350;42.698;23.148;2023-12-04T12:33:04;3.07;;;2.47;;
10605;SDS011;5350;42.698;23.148;2023-12-04T12:35:33;3.37;;;3.07;;
10605;SDS011;5350;42.698;23.148;2023-12-04T12:38:00;3.23;;;2.43;;
10605;SDS011;5350;42.698;23.148;2023-12-04T12:40:27;2.60;;;2.40;;
10605;SDS011;5350;42.698;23.148;2023-12-04T12:43:02;2.50;;;2.30;;
10605;SDS011;5350;42.698;23.148;2023-12-04T12:45:30;2.50;;;2.30;;
10605;SDS011;5350;42.698;23.148;2023-12-04T12:48:06;2.60;;;2.40;;
10605;SDS011;5350;42.698;23.148;2023-12-04T12:50:36;3.40;;;2.53;;
10605;SDS011;5350;42.698;23.148;2023-12-04T12:53:03;3.07;;;2.07;;
10605;SDS011;5350;42.698;23.148;2023-12-04T12:55:30;3.37;;;2.50;;
10605;SDS011;5350;42.698;23.148;2023-12-04T12:57:57;2.57;;;2.30;;
10605;SDS011;5350;42.698;23.148;2023-12-04T13:00:23;3.00;;;2.47;;
10605;SDS011;5350;42.698;23.148;2023-12-04T13:02:51;3.90;;;2.80;;
10605;SDS011;5350;42.698;23.148;2023-12-04T13:05:20;3.03;;;2.73;;
10605;SDS011;5350;42.698;23.148;2023-12-04T13:07:46;3.83;;;2.90;;
10605;SDS011;5350;42.698;23.148;2023-12-04T13:10:13;3.53;;;3.10;;
10605;SDS011;5350;42.698;23.148;2023-12-04T13:12:40;6.23;;;3.70;;
10605;SDS011;5350;42.698;23.148;2023-12-04T13:15:07;5.63;;;3.17;;
10605;SDS011;5350;42.698;23.148;2023-12-04T13:17:35;4.20;;;3.60;;
10605;SDS011;5350;42.698;23.148;2023-12-04T13:20:02;5.93;;;3.70;;
10605;SDS011;5350;42.698;23.148;2023-12-04T13:22:31;3.67;;;3.37;;
10605;SDS011;5350;42.698;23.148;2023-12-04T13:24:59;3.97;;;3.43;;
10605;SDS011;5350;42.698;23.148;2023-12-04T13:27:27;4.23;;;3.70;;
10605;SDS011;5350;42.698;23.148;2023-12-04T13:29:54;4.87;;;3.73;;
10605;SDS011;5350;42.698;23.148;2023-12-04T13:32:20;5.40;;;3.67;;
10605;SDS011;5350;42.698;23.148;2023-12-04T13:34:47;5.07;;;4.20;;
10605;SDS011;5350;42.698;23.148;2023-12-04T13:37:14;7.10;;;4.47;;
10605;SDS011;5350;42.698;23.148;2023-12-04T13:39:42;12.97;;;5.90;;
10605;SDS011;5350;42.698;23.148;2023-12-04T13:42:14;9.03;;;5.37;;
10605;SDS011;5350;42.698;23.148;2023-12-04T13:44:59;6.70;;;5.23;;
10605;SDS011;5350;42.698;23.148;2023-12-04T13:47:26;6.57;;;5.13;;
10605;SDS011;5350;42.698;23.148;2023-12-04T13:49:53;7.40;;;5.33;;
10605;SDS011;5350;42.698;23.148;2023-12-04T13:52:20;8.10;;;5.90;;
10605;SDS011;5350;42.698;23.148;2023-12-04T13:54:49;8.60;;;5.90;;
10605;SDS011;5350;42.698;23.148;2023-12-04T13:57:18;10.13;;;7.20;;
10605;SDS011;5350;42.698;23.148;2023-12-04T13:59:47;8.17;;;6.00;;
10605;SDS011;5350;42.698;23.148;2023-12-04T14:02:14;9.40;;;6.87;;
10605;SDS011;5350;42.698;23.148;2023-12-04T14:04:41;8.53;;;6.07;;
10605;SDS011;5350;42.698;23.148;2023-12-04T14:07:10;7.93;;;5.67;;
10605;SDS011;5350;42.698;23.148;2023-12-04T14:19:41;9.27;;;6.67;;
10605;SDS011;5350;42.698;23.148;2023-12-04T14:22:08;7.70;;;6.20;;
10605;SDS011;5350;42.698;23.148;2023-12-04T14:24:35;9.57;;;6.20;;
10605;SDS011;5350;42.698;23.148;2023-12-04T14:27:02;9.23;;;6.37;;
10605;SDS011;5350;42.698;23.148;2023-12-04T14:29:31;8.50;;;6.70;;
10605;SDS011;5350;42.698;23.148;2023-12-04T14:31:57;13.90;;;7.97;;
10605;SDS011;5350;42.698;23.148;2023-12-04T14:34:25;10.60;;;8.17;;
10605;SDS011;5350;42.698;23.148;2023-12-04T14:36:53;14.30;;;8.97;;
10605;SDS011;5350;42.698;23.148;2023-12-04T14:39:20;12.40;;;8.87;;
10605;SDS011;5350;42.698;23.148;2023-12-04T14:41:47;17.83;;;10.13;;
10605;SDS011;5350;42.698;23.148;2023-12-04T14:44:13;19.10;;;10.67;;
10605;SDS011;5350;42.698;23.148;2023-12-04T14:46:40;12.73;;;7.03;;
10605;SDS011;5350;42.698;23.148;2023-12-04T14:49:07;11.97;;;6.93;;
10605;SDS011;5350;42.698;23.148;2023-12-04T14:51:35;10.83;;;7.30;;
10605;SDS011;5350;42.698;23.148;2023-12-04T14:54:02;15.37;;;7.90;;
10605;SDS011;5350;42.698;23.148;2023-12-04T14:56:41;13.07;;;8.23;;
10605;SDS011;5350;42.698;23.148;2023-12-04T14:59:38;11.33;;;7.70;;